Skip to Main Content
SEARCH:
Location Air RH Dwp Precip Type Wind Speed Wind Gust Direction Pavement Temperature Date/Time
Hatem Bridge US 40 E/B 62 100 62 None Calm Calm NE 59 - 59 5/28/2017 4:15:00 AM
I-270 at I-370 - - - No Data Available - - No Data Available -
I-270 at MD-109 55 100 55 None Calm Calm SE 60 - 60 5/28/2017 4:15:00 AM
I-495 at American Legion Bridge 57 100 57 None Calm Calm NW 61 - 62 5/28/2017 4:15:00 AM
I-68 at MD-219 58 100 58 None 5 mph 11 mph S 58 - 59 5/28/2017 4:15:00 AM
I-68 at Savage Mt 58 100 58 None Calm 5 mph S 58 - 58 5/28/2017 4:15:00 AM
I-68 at Sideling Hill 58 100 58 None Calm Calm N 61 - 61 5/28/2017 4:15:00 AM
I-68 at WV Line 58 100 58 None Calm Calm N 60 - 61 5/28/2017 4:15:00 AM
I-695 at I-83 58 97 58 None Calm Calm E 61 - 61 5/28/2017 4:15:00 AM
I-70 at Fred-Wash Co. - - - No Data Available - - No Data Available -
I-70 at I-695 56 98 56 None Calm Calm SE 60 - 63 5/28/2017 4:15:00 AM
I-70 at I-81 56 100 56 None Calm Calm E 59 - 59 5/28/2017 4:15:00 AM
I-70 at MD-27 57 100 57 None Calm Calm E 59 - 59 5/28/2017 4:15:00 AM
I-70 at MD-32 55 98 55 None Calm Calm N 60 - 61 5/28/2017 4:15:00 AM
I-83 at MD-137 58 100 58 None Calm Calm NE 61 - 61 5/28/2017 4:15:00 AM
I-95 at I-695 NE 59 96 58 None Calm Calm NE 61 - 62 5/28/2017 4:15:00 AM
I-95 at Patuxent River 59 99 59 None Calm 4 mph S 62 - 62 5/28/2017 4:15:00 AM
I-95 at Tydings Bridge 61 95 60 None 4 mph 6 mph E 63 - 63 5/28/2017 4:15:00 AM
I-95/495 at I-295 67 76 59 None Calm Calm N 64 - 65 5/28/2017 4:15:00 AM
I-97 at MD-100 - - - No Data Available - - No Data Available -
I-97 at MD-32 57 96 56 None 9 mph 10 mph N 61 - 62 5/28/2017 4:15:00 AM
MD 20 at MD 21 58 95 57 None Calm Calm NE 63 - 63 5/28/2017 4:15:00 AM
MD 231 at Patuxent River 63 91 60 None 4 mph 6 mph NE 63 - 66 5/28/2017 4:15:00 AM
MD 260 at Cox Rd 63 85 58 None Calm Calm E 67 - 67 5/28/2017 4:15:00 AM
MD-135 at Salt Dome 58 100 58 None Calm 5 mph N 60 - 60 5/28/2017 4:15:00 AM
MD-140 at MD-97 55 100 55 None Calm 4 mph E 58 - 58 5/28/2017 4:15:00 AM
MD-200 EB at Bonifant Rd 57 100 57 None Calm Calm NW 59 - 59 5/28/2017 4:15:00 AM
MD-200 WB at Muncaster Mill Rd 53 96 52 None Calm Calm NW 58 - 58 5/28/2017 4:15:00 AM
MD-213 at Sassafras River 61 100 61 None Calm Calm N 63 - 63 5/28/2017 4:15:00 AM
MD-24 at Rock St Park 60 100 60 None Calm Calm E 62 - 62 5/28/2017 4:15:00 AM
MD-30 at PA Line 58 100 58 None Calm 6 mph SE 59 - 59 5/28/2017 4:15:00 AM
MD-301 at MD-305 60 85 55 None Calm Calm SE 63 - 64 5/28/2017 4:15:00 AM
MD-33 at Knapps Narrows Drawbridge 63 84 58 None 5 mph 10 mph SE 66 - 66 5/28/2017 4:15:00 AM
MD-344 at MD-224 60 99 59 None Calm Calm N 65 - 65 5/28/2017 4:10:00 AM
MD-4 at Patuxent River 64 88 61 None - - No Data Available 66 - 68 5/28/2017 4:15:00 AM
MD-404 at Choptank River 59 90 56 None Calm Calm NE 64 - 66 5/28/2017 4:15:00 AM
MD-43 at MD-150 60 100 60 None Calm Calm NE 61 - 62 5/28/2017 4:15:00 AM
MD-51 at Oldtown Salt Dome 59 100 59 None Calm Calm N 64 - 64 5/28/2017 4:15:00 AM
MD-64 at MD-418 - - - No Data Available - - No Data Available -
US-1 at Baltimore / Harford Co. Line 58 98 58 None Calm Calm N 61 - 61 5/28/2017 4:15:00 AM
US-1 at Conowingo Dam 61 100 61 None Calm Calm N 63 - 63 5/28/2017 4:15:00 AM
US-13 at US-113 59 90 56 None Calm Calm SE 68 - 68 5/28/2017 4:15:00 AM
US-13 at US-50 - - - No Data Available - - No Data Available -
US-15 at MD-140 57 100 57 None Calm Calm N 60 - 62 5/28/2017 4:15:00 AM
US-301 at MD-5 59 100 59 None Calm Calm NE 64 - 65 5/28/2017 4:15:00 AM
US-301 at Potomac 71 76 63 None Calm Calm N 63 - 67 5/28/2017 4:15:00 AM
US-301 on HWN Bridge 63 96 62 None 4 mph 6 mph NE 61 - 61 5/28/2017 4:15:00 AM
US-340 at MD-180 55 100 55 None Calm Calm N 60 - 60 5/28/2017 4:15:00 AM
US-50 at Choptank 61 89 58 None Calm 4 mph NE 65 - 65 5/28/2017 4:15:00 AM
US-50 at I-95 60 99 60 None Calm Calm N 62 - 64 5/28/2017 4:15:00 AM
US-50 at MD-2 60 100 60 None Calm Calm N 62 - 62 5/28/2017 4:10:00 AM
US-50 at MD-331 64 75 56 None Calm 4 mph NE 65 - 65 5/28/2017 4:15:00 AM
US-50 at OC Drawbridge 61 88 58 None 6 mph 8 mph E 65 - 65 5/28/2017 4:15:00 AM
US-50 at Table Rock Rd 59 100 59 None 4 mph 5 mph E 60 - 60 5/28/2017 4:15:00 AM
US-50 Kent Narrow Bridge 61 90 58 None Calm 5 mph SE 62 - 63 5/28/2017 4:15:00 AM
WPL Pier 31 63 77 55 None 7 mph 4 mph S 58 - 58 5/28/2017 4:15:00 AM
Location Air RH Dwp Precip Type Wind Speed Wind Gust Direction Pavement Temperature Date/Time